logo
Rechercher aéroport 
image banner adimage banner adimage banner ad
image banner ad

LOAW - Oamtc/Wr. Neustadt

Situé à District Wiener Neustadt(Stadt), Austria

ICAO - , IATA -

Données fournies par Airmate  

Information générale

Coordonnées: N47°50'42" E16°15'6"
Élévation : 900 feet MSL.
 
Voir autres Aéroports à Lower Austria

Données opérationnelles

Special qualification required
Heure actuelle UTC:
Heure actuelle locale:
Météo à : LOAN - Wr. Neustadt/Ost ( 1 km )
METAR: LOAN 290800Z 33014KT 9999 FEW035
TAF: TAF LOAN 290715Z 2907/2915 34010KT 9999 FEW050
Voir NOTAMs / SUP AIP / TFR affectant cet aéroport [VIEW]
Fréquences de communication: [VIEW]

Pistes:

Coordonnées de l'aéroport

Adresse: District Wiener Neustadt(Stadt) Austria

Vue satellite de LOAW